RYR76SW EGSS-EDDK
Flight info
| Callsign | RYR76SW |
|---|---|
| Flight time | 0h 52m |
| Altitude | 33000 |
| Route | CLN M84 KONAN UL607 SPI T857 DENOV T861 ERUKI T856 DEPOK DEPOK2C |
| Aircraft | B738/M-SDE2E3FGHIRWXY/LB1 |
Departure
| Time | 2026-04-22 08:07 |
|---|---|
| Airport | London Stansted Airport (EGSS) |
Arrival
| Time | 2026-04-22 09:00 |
|---|---|
| Airport | Cologne Bonn Airport (EDDK) |
| Time | Latitude | Longitude | Altitude | Speed | Heading |
|---|---|---|---|---|---|
| 2026-04-22 07:30 | 51.89197 | 0.25671 | 348 ft | 0 kts | 223° |
| 2026-04-22 07:34 | 51.89198 | 0.25671 | 348 ft | 0 kts | 223° |
| 2026-04-22 07:34 | 51.89197 | 0.25671 | 348 ft | 0 kts | 223° |
| 2026-04-22 07:34 | 51.89198 | 0.25671 | 348 ft | 0 kts | 223° |
| 2026-04-22 07:40 | 51.89198 | 0.25672 | 348 ft | 0 kts | 223° |
| 2026-04-22 07:57 | 51.89198 | 0.25673 | 348 ft | 1 kts | 223° |
| 2026-04-22 07:57 | 51.89210 | 0.25689 | 340 ft | 3 kts | 221° |
| 2026-04-22 07:57 | 51.89222 | 0.25707 | 364 ft | 2 kts | 224° |
| 2026-04-22 07:57 | 51.89233 | 0.25730 | 360 ft | 3 kts | 259° |
| 2026-04-22 07:58 | 51.89231 | 0.25757 | 356 ft | 3 kts | 304° |
| 2026-04-22 07:58 | 51.89222 | 0.25776 | 352 ft | 1 kts | 313° |
| 2026-04-22 07:58 | 51.89221 | 0.25777 | 352 ft | 0 kts | 313° |
| 2026-04-22 08:00 | 51.89260 | 0.25709 | 351 ft | 15 kts | 313° |
| 2026-04-22 08:01 | 51.89335 | 0.25584 | 348 ft | 16 kts | 323° |
| 2026-04-22 08:01 | 51.89416 | 0.25475 | 350 ft | 15 kts | 295° |
| 2026-04-22 08:01 | 51.89370 | 0.25341 | 348 ft | 14 kts | 222° |
| 2026-04-22 08:01 | 51.89298 | 0.25234 | 352 ft | 14 kts | 223° |
| 2026-04-22 08:02 | 51.89239 | 0.25113 | 354 ft | 15 kts | 240° |
| 2026-04-22 08:02 | 51.89194 | 0.25010 | 352 ft | 20 kts | 229° |
| 2026-04-22 08:02 | 51.89077 | 0.24831 | 348 ft | 26 kts | 222° |
| 2026-04-22 08:02 | 51.88942 | 0.24630 | 352 ft | 26 kts | 223° |
| 2026-04-22 08:03 | 51.88816 | 0.24438 | 353 ft | 24 kts | 223° |
| 2026-04-22 08:03 | 51.88698 | 0.24262 | 351 ft | 23 kts | 223° |
| 2026-04-22 08:03 | 51.88583 | 0.24092 | 353 ft | 22 kts | 222° |
| 2026-04-22 08:03 | 51.88472 | 0.23925 | 356 ft | 21 kts | 224° |
| 2026-04-22 08:04 | 51.88365 | 0.23761 | 348 ft | 21 kts | 223° |
| 2026-04-22 08:04 | 51.88233 | 0.23564 | 355 ft | 29 kts | 223° |
| 2026-04-22 08:04 | 51.88087 | 0.23346 | 351 ft | 28 kts | 223° |
| 2026-04-22 08:04 | 51.87949 | 0.23141 | 355 ft | 26 kts | 223° |
| 2026-04-22 08:05 | 51.87821 | 0.22948 | 353 ft | 24 kts | 223° |
| 2026-04-22 08:05 | 51.87741 | 0.22827 | 355 ft | 23 kts | 223° |
| 2026-04-22 08:05 | 51.87625 | 0.22653 | 348 ft | 22 kts | 223° |
| 2026-04-22 08:05 | 51.87529 | 0.22506 | 348 ft | 16 kts | 232° |
| 2026-04-22 08:06 | 51.87562 | 0.22351 | 338 ft | 16 kts | 315° |
| 2026-04-22 08:06 | 51.87697 | 0.22277 | 334 ft | 16 kts | 28° |
| 2026-04-22 08:06 | 51.87798 | 0.22424 | 339 ft | 37 kts | 41° |
| 2026-04-22 08:06 | 51.88023 | 0.22763 | 334 ft | 93 kts | 42° |
| 2026-04-22 08:07 | 51.88673 | 0.23738 | 387 ft | 156 kts | 45° |
| 2026-04-22 08:07 | 51.89496 | 0.24994 | 1237 ft | 161 kts | 48° |
| 2026-04-22 08:07 | 51.90227 | 0.26165 | 2635 ft | 141 kts | 51° |
| 2026-04-22 08:07 | 51.90982 | 0.27316 | 3271 ft | 164 kts | 54° |
| 2026-04-22 08:08 | 51.91587 | 0.29054 | 3625 ft | 192 kts | 75° |
| 2026-04-22 08:08 | 51.91672 | 0.31318 | 3955 ft | 214 kts | 99° |
| 2026-04-22 08:08 | 51.91123 | 0.33720 | 4336 ft | 238 kts | 114° |
| 2026-04-22 08:08 | 51.90377 | 0.36145 | 5317 ft | 241 kts | 115° |
| 2026-04-22 08:09 | 51.89639 | 0.38589 | 6328 ft | 243 kts | 114° |
| 2026-04-22 08:09 | 51.88911 | 0.41044 | 7261 ft | 248 kts | 114° |
| 2026-04-22 08:09 | 51.88150 | 0.43584 | 8156 ft | 253 kts | 114° |
| 2026-04-22 08:09 | 51.87380 | 0.46174 | 9035 ft | 258 kts | 114° |
| 2026-04-22 08:10 | 51.86596 | 0.48828 | 9911 ft | 264 kts | 114° |
| 2026-04-22 08:10 | 51.85799 | 0.51531 | 10779 ft | 268 kts | 114° |
| 2026-04-22 08:10 | 51.84985 | 0.54300 | 11429 ft | 282 kts | 114° |
| 2026-04-22 08:10 | 51.84103 | 0.57302 | 11733 ft | 306 kts | 114° |
| 2026-04-22 08:11 | 51.83347 | 0.60550 | 12410 ft | 314 kts | 98° |
| 2026-04-22 08:11 | 51.83334 | 0.64086 | 13295 ft | 316 kts | 89° |
| 2026-04-22 08:11 | 51.83348 | 0.67664 | 14115 ft | 321 kts | 92° |
| 2026-04-22 08:11 | 51.83371 | 0.71298 | 14901 ft | 324 kts | 88° |
| 2026-04-22 08:12 | 51.83498 | 0.74952 | 15714 ft | 327 kts | 87° |
| 2026-04-22 08:12 | 51.83649 | 0.78634 | 16502 ft | 330 kts | 87° |
| 2026-04-22 08:12 | 51.83795 | 0.82362 | 17241 ft | 335 kts | 87° |
| 2026-04-22 08:12 | 51.83933 | 0.86131 | 17988 ft | 339 kts | 87° |
| 2026-04-22 08:13 | 51.84067 | 0.89983 | 18769 ft | 342 kts | 87° |
| 2026-04-22 08:13 | 51.84191 | 0.93741 | 19304 ft | 349 kts | 87° |
| 2026-04-22 08:13 | 51.84318 | 0.97665 | 20034 ft | 350 kts | 87° |
| 2026-04-22 08:13 | 51.84444 | 1.01627 | 20637 ft | 355 kts | 87° |
| 2026-04-22 08:14 | 51.84569 | 1.05653 | 21149 ft | 363 kts | 87° |
| 2026-04-22 08:14 | 51.84600 | 1.09739 | 21819 ft | 365 kts | 96° |
| 2026-04-22 08:14 | 51.83878 | 1.13682 | 22395 ft | 371 kts | 116° |
| 2026-04-22 08:14 | 51.82401 | 1.17138 | 22923 ft | 379 kts | 133° |
| 2026-04-22 08:15 | 51.80317 | 1.19813 | 23485 ft | 386 kts | 144° |
| 2026-04-22 08:15 | 51.78062 | 1.22200 | 23991 ft | 392 kts | 146° |
| 2026-04-22 08:15 | 51.75734 | 1.24570 | 24375 ft | 398 kts | 146° |
| 2026-04-22 08:15 | 51.73380 | 1.26985 | 24766 ft | 404 kts | 146° |
| 2026-04-22 08:16 | 51.71006 | 1.29470 | 25159 ft | 410 kts | 146° |
| 2026-04-22 08:16 | 51.68602 | 1.32012 | 25532 ft | 416 kts | 146° |
| 2026-04-22 08:16 | 51.66078 | 1.34340 | 25962 ft | 421 kts | 155° |
| 2026-04-22 08:16 | 51.63312 | 1.35895 | 26415 ft | 424 kts | 166° |
| 2026-04-22 08:17 | 51.60383 | 1.36664 | 26749 ft | 429 kts | 178° |
| 2026-04-22 08:17 | 51.57387 | 1.36815 | 27210 ft | 431 kts | 180° |
| 2026-04-22 08:17 | 51.54379 | 1.36887 | 27636 ft | 435 kts | 180° |
| 2026-04-22 08:17 | 51.51332 | 1.37005 | 27984 ft | 441 kts | 180° |
| 2026-04-22 08:18 | 51.48251 | 1.37174 | 28325 ft | 446 kts | 179° |
| 2026-04-22 08:18 | 51.45308 | 1.37997 | 28614 ft | 454 kts | 161° |
| 2026-04-22 08:18 | 51.42488 | 1.40308 | 28997 ft | 458 kts | 143° |
| 2026-04-22 08:18 | 51.40193 | 1.43813 | 29431 ft | 457 kts | 127° |
| 2026-04-22 08:19 | 51.38248 | 1.47827 | 29941 ft | 457 kts | 124° |
| 2026-04-22 08:19 | 51.36366 | 1.51856 | 30347 ft | 459 kts | 124° |
| 2026-04-22 08:19 | 51.34452 | 1.55963 | 30707 ft | 461 kts | 124° |
| 2026-04-22 08:19 | 51.32525 | 1.60048 | 31217 ft | 459 kts | 125° |
| 2026-04-22 08:20 | 51.30600 | 1.64072 | 31819 ft | 454 kts | 126° |
| 2026-04-22 08:20 | 51.28682 | 1.68043 | 32405 ft | 449 kts | 126° |
| 2026-04-22 08:20 | 51.26769 | 1.71982 | 32901 ft | 447 kts | 126° |
| 2026-04-22 08:20 | 51.24862 | 1.75900 | 33305 ft | 447 kts | 126° |
| 2026-04-22 08:21 | 51.20994 | 1.83830 | 33335 ft | 454 kts | 126° |
| 2026-04-22 08:21 | 51.17129 | 1.91736 | 33342 ft | 457 kts | 126° |
| 2026-04-22 08:22 | 51.13762 | 2.00429 | 33340 ft | 466 kts | 109° |
| 2026-04-22 08:22 | 51.12357 | 2.10387 | 33338 ft | 465 kts | 91° |
| 2026-04-22 08:23 | 51.11888 | 2.20642 | 33320 ft | 463 kts | 90° |
| 2026-04-22 08:23 | 51.11407 | 2.30728 | 33327 ft | 454 kts | 91° |
| 2026-04-22 08:24 | 51.10865 | 2.40749 | 33348 ft | 455 kts | 92° |
| 2026-04-22 08:24 | 51.10297 | 2.50782 | 33347 ft | 455 kts | 92° |
| 2026-04-22 08:25 | 51.09725 | 2.60801 | 33352 ft | 455 kts | 92° |
| 2026-04-22 08:25 | 51.08597 | 2.70704 | 33359 ft | 457 kts | 103° |
| 2026-04-22 08:26 | 51.06794 | 2.80388 | 33348 ft | 456 kts | 104° |
| 2026-04-22 08:26 | 51.04980 | 2.90022 | 33347 ft | 454 kts | 104° |
| 2026-04-22 08:27 | 51.03205 | 2.99629 | 33342 ft | 452 kts | 104° |
| 2026-04-22 08:27 | 51.01449 | 3.09187 | 33344 ft | 449 kts | 104° |
| 2026-04-22 08:28 | 50.99696 | 3.18687 | 33336 ft | 447 kts | 104° |
| 2026-04-22 08:28 | 50.97939 | 3.28160 | 33332 ft | 448 kts | 104° |
| 2026-04-22 08:29 | 50.96183 | 3.37571 | 33325 ft | 448 kts | 104° |
| 2026-04-22 08:29 | 50.94406 | 3.47050 | 33325 ft | 448 kts | 104° |
| 2026-04-22 08:30 | 50.92624 | 3.56508 | 33324 ft | 448 kts | 104° |
| 2026-04-22 08:30 | 50.90838 | 3.65932 | 33315 ft | 445 kts | 105° |
| 2026-04-22 08:31 | 50.89031 | 3.75315 | 33336 ft | 445 kts | 105° |
| 2026-04-22 08:32 | 50.86301 | 3.89383 | 33329 ft | 446 kts | 105° |
| 2026-04-22 08:32 | 50.84475 | 3.98752 | 33336 ft | 445 kts | 105° |
| 2026-04-22 08:33 | 50.82646 | 4.08097 | 33342 ft | 444 kts | 105° |
| 2026-04-22 08:33 | 50.80810 | 4.17434 | 33341 ft | 444 kts | 105° |
| 2026-04-22 08:34 | 50.78967 | 4.26759 | 33350 ft | 445 kts | 105° |
| 2026-04-22 08:34 | 50.77115 | 4.36087 | 33345 ft | 445 kts | 105° |
| 2026-04-22 08:35 | 50.75254 | 4.45414 | 33347 ft | 445 kts | 105° |
| 2026-04-22 08:35 | 50.73387 | 4.54736 | 33346 ft | 445 kts | 105° |
| 2026-04-22 08:36 | 50.71526 | 4.64051 | 33344 ft | 445 kts | 105° |
| 2026-04-22 08:36 | 50.69722 | 4.73397 | 33341 ft | 445 kts | 104° |
| 2026-04-22 08:37 | 50.67917 | 4.82731 | 33339 ft | 445 kts | 105° |
| 2026-04-22 08:37 | 50.66093 | 4.92061 | 33334 ft | 445 kts | 105° |
| 2026-04-22 08:38 | 50.64203 | 5.01351 | 33328 ft | 445 kts | 105° |
| 2026-04-22 08:38 | 50.62283 | 5.10613 | 33324 ft | 444 kts | 105° |
| 2026-04-22 08:39 | 50.60367 | 5.19852 | 33323 ft | 444 kts | 105° |
| 2026-04-22 08:39 | 50.58463 | 5.29020 | 33319 ft | 443 kts | 105° |
| 2026-04-22 08:40 | 50.56544 | 5.38228 | 33324 ft | 443 kts | 105° |
| 2026-04-22 08:40 | 50.54635 | 5.47343 | 33161 ft | 426 kts | 105° |
| 2026-04-22 08:40 | 50.53717 | 5.51706 | 32673 ft | 416 kts | 105° |
| 2026-04-22 08:41 | 50.52815 | 5.55989 | 32177 ft | 411 kts | 105° |
| 2026-04-22 08:41 | 50.52200 | 5.60347 | 31627 ft | 408 kts | 92° |
| 2026-04-22 08:41 | 50.52204 | 5.64768 | 31103 ft | 404 kts | 81° |
| 2026-04-22 08:41 | 50.52766 | 5.69054 | 30572 ft | 401 kts | 70° |
| 2026-04-22 08:42 | 50.53641 | 5.73211 | 29987 ft | 399 kts | 69° |
| 2026-04-22 08:42 | 50.54547 | 5.77332 | 29351 ft | 398 kts | 69° |
| 2026-04-22 08:42 | 50.55450 | 5.81442 | 28749 ft | 396 kts | 70° |
| 2026-04-22 08:42 | 50.56335 | 5.85534 | 28147 ft | 395 kts | 70° |
| 2026-04-22 08:43 | 50.57205 | 5.89622 | 27573 ft | 393 kts | 70° |
| 2026-04-22 08:43 | 50.58060 | 5.93686 | 27017 ft | 390 kts | 71° |
| 2026-04-22 08:43 | 50.58906 | 5.97736 | 26480 ft | 388 kts | 71° |
| 2026-04-22 08:43 | 50.59736 | 6.01729 | 25946 ft | 380 kts | 71° |
| 2026-04-22 08:44 | 50.60550 | 6.05646 | 25426 ft | 373 kts | 71° |
| 2026-04-22 08:44 | 50.61349 | 6.09496 | 24903 ft | 367 kts | 71° |
| 2026-04-22 08:44 | 50.62130 | 6.13272 | 24383 ft | 360 kts | 71° |
| 2026-04-22 08:44 | 50.62895 | 6.16994 | 23779 ft | 354 kts | 73° |
| 2026-04-22 08:45 | 50.63393 | 6.20755 | 23073 ft | 348 kts | 82° |
| 2026-04-22 08:45 | 50.63519 | 6.24537 | 22373 ft | 345 kts | 91° |
| 2026-04-22 08:45 | 50.63339 | 6.28279 | 21688 ft | 341 kts | 93° |
| 2026-04-22 08:45 | 50.63136 | 6.31988 | 20974 ft | 339 kts | 92° |
| 2026-04-22 08:46 | 50.62936 | 6.35682 | 20273 ft | 337 kts | 92° |
| 2026-04-22 08:46 | 50.62742 | 6.39344 | 19584 ft | 335 kts | 92° |
| 2026-04-22 08:46 | 50.62550 | 6.42988 | 18900 ft | 333 kts | 92° |
| 2026-04-22 08:46 | 50.62361 | 6.46610 | 18134 ft | 331 kts | 93° |
| 2026-04-22 08:47 | 50.62172 | 6.50225 | 17335 ft | 330 kts | 93° |
| 2026-04-22 08:47 | 50.61983 | 6.53823 | 16524 ft | 329 kts | 93° |
| 2026-04-22 08:47 | 50.61794 | 6.57409 | 15741 ft | 328 kts | 93° |
| 2026-04-22 08:47 | 50.61604 | 6.60988 | 14971 ft | 327 kts | 93° |
| 2026-04-22 08:48 | 50.61429 | 6.64507 | 14225 ft | 325 kts | 90° |
| 2026-04-22 08:48 | 50.61796 | 6.67984 | 13383 ft | 323 kts | 68° |
| 2026-04-22 08:48 | 50.62533 | 6.70043 | 12908 ft | 321 kts | 53° |
| 2026-04-22 08:48 | 50.64764 | 6.72737 | 12068 ft | 320 kts | 24° |
| 2026-04-22 08:49 | 50.66905 | 6.73660 | 11484 ft | 318 kts | 15° |
| 2026-04-22 08:49 | 50.69061 | 6.74294 | 10950 ft | 312 kts | 13° |
| 2026-04-22 08:49 | 50.71171 | 6.74861 | 10525 ft | 303 kts | 13° |
| 2026-04-22 08:49 | 50.73197 | 6.75386 | 10381 ft | 287 kts | 13° |
| 2026-04-22 08:50 | 50.75105 | 6.75859 | 10341 ft | 268 kts | 13° |
| 2026-04-22 08:50 | 50.76885 | 6.76282 | 10328 ft | 250 kts | 13° |
| 2026-04-22 08:50 | 50.78599 | 6.76677 | 10363 ft | 248 kts | 13° |
| 2026-04-22 08:50 | 50.80291 | 6.77061 | 10204 ft | 244 kts | 13° |
| 2026-04-22 08:51 | 50.81968 | 6.77440 | 9817 ft | 243 kts | 13° |
| 2026-04-22 08:51 | 50.83638 | 6.77819 | 9373 ft | 243 kts | 13° |
| 2026-04-22 08:51 | 50.85309 | 6.78198 | 8976 ft | 242 kts | 13° |
| 2026-04-22 08:51 | 50.86966 | 6.78577 | 8618 ft | 240 kts | 13° |
| 2026-04-22 08:52 | 50.88612 | 6.78947 | 8267 ft | 238 kts | 13° |
| 2026-04-22 08:52 | 50.89695 | 6.79190 | 8005 ft | 237 kts | 13° |
| 2026-04-22 08:52 | 50.91328 | 6.79557 | 7634 ft | 236 kts | 13° |
| 2026-04-22 08:52 | 50.92891 | 6.79910 | 7303 ft | 235 kts | 13° |
| 2026-04-22 08:53 | 50.94507 | 6.80274 | 6981 ft | 234 kts | 13° |
| 2026-04-22 08:53 | 50.96113 | 6.80636 | 6636 ft | 233 kts | 13° |
| 2026-04-22 08:53 | 50.97713 | 6.81001 | 6261 ft | 232 kts | 13° |
| 2026-04-22 08:53 | 50.99310 | 6.81371 | 5867 ft | 231 kts | 13° |
| 2026-04-22 08:54 | 51.00881 | 6.81809 | 5471 ft | 227 kts | 22° |
| 2026-04-22 08:54 | 51.02148 | 6.83183 | 5166 ft | 221 kts | 55° |
| 2026-04-22 08:54 | 51.02689 | 6.85374 | 4893 ft | 214 kts | 88° |
| 2026-04-22 08:54 | 51.02521 | 6.87685 | 4428 ft | 213 kts | 102° |
| 2026-04-22 08:55 | 51.02160 | 6.90001 | 4026 ft | 217 kts | 102° |
| 2026-04-22 08:55 | 51.01692 | 6.92277 | 3621 ft | 220 kts | 121° |
| 2026-04-22 08:55 | 51.00701 | 6.94134 | 3260 ft | 220 kts | 128° |
| 2026-04-22 08:55 | 50.99702 | 6.95978 | 3053 ft | 221 kts | 130° |
| 2026-04-22 08:56 | 50.98608 | 6.97636 | 3012 ft | 213 kts | 136° |
| 2026-04-22 08:56 | 50.97500 | 6.99189 | 2800 ft | 210 kts | 136° |
| 2026-04-22 08:56 | 50.96444 | 7.00717 | 2539 ft | 202 kts | 135° |
| 2026-04-22 08:56 | 50.95444 | 7.02170 | 2268 ft | 191 kts | 135° |
| 2026-04-22 08:57 | 50.94477 | 7.03522 | 2043 ft | 180 kts | 136° |
| 2026-04-22 08:57 | 50.93577 | 7.04875 | 1778 ft | 173 kts | 134° |
| 2026-04-22 08:57 | 50.92726 | 7.06135 | 1570 ft | 161 kts | 136° |
| 2026-04-22 08:57 | 50.91910 | 7.07294 | 1287 ft | 154 kts | 135° |
| 2026-04-22 08:58 | 50.91157 | 7.08394 | 1054 ft | 145 kts | 133° |
| 2026-04-22 08:58 | 50.90424 | 7.09485 | 874 ft | 145 kts | 133° |
| 2026-04-22 08:58 | 50.89679 | 7.10555 | 730 ft | 145 kts | 135° |
| 2026-04-22 08:58 | 50.88930 | 7.11633 | 533 ft | 146 kts | 135° |
| 2026-04-22 08:59 | 50.88192 | 7.12705 | 335 ft | 142 kts | 135° |
| 2026-04-22 08:59 | 50.87494 | 7.13713 | 247 ft | 124 kts | 134° |
| 2026-04-22 08:59 | 50.86947 | 7.14506 | 256 ft | 81 kts | 138° |
| 2026-04-22 08:59 | 50.86605 | 7.15000 | 262 ft | 60 kts | 137° |
| 2026-04-22 09:00 | 50.86324 | 7.15298 | 270 ft | 32 kts | 165° |
| 2026-04-22 09:00 | 50.86175 | 7.15350 | 275 ft | 17 kts | 167° |
| 2026-04-22 09:00 | 50.86073 | 7.15316 | 278 ft | 16 kts | 219° |
| 2026-04-22 09:00 | 50.86053 | 7.15135 | 278 ft | 19 kts | 295° |
| 2026-04-22 09:01 | 50.86148 | 7.14986 | 271 ft | 20 kts | 317° |
| 2026-04-22 09:01 | 50.86253 | 7.14834 | 268 ft | 20 kts | 318° |
| 2026-04-22 09:01 | 50.86360 | 7.14677 | 263 ft | 22 kts | 317° |
| 2026-04-22 09:01 | 50.86470 | 7.14519 | 259 ft | 22 kts | 316° |
| 2026-04-22 09:02 | 50.86585 | 7.14359 | 257 ft | 22 kts | 319° |
| 2026-04-22 09:02 | 50.86677 | 7.14219 | 255 ft | 17 kts | 318° |
| 2026-04-22 09:02 | 50.86720 | 7.14071 | 250 ft | 17 kts | 242° |
| 2026-04-22 09:02 | 50.86664 | 7.13902 | 245 ft | 19 kts | 246° |
| 2026-04-22 09:03 | 50.86605 | 7.13706 | 241 ft | 21 kts | 243° |
| 2026-04-22 09:03 | 50.86539 | 7.13491 | 238 ft | 21 kts | 246° |
| 2026-04-22 09:03 | 50.86521 | 7.13259 | 239 ft | 26 kts | 310° |
| 2026-04-22 09:03 | 50.86656 | 7.13060 | 237 ft | 26 kts | 319° |
| 2026-04-22 09:04 | 50.86786 | 7.12871 | 237 ft | 24 kts | 316° |
| 2026-04-22 09:04 | 50.86903 | 7.12703 | 237 ft | 23 kts | 317° |
| 2026-04-22 09:04 | 50.87018 | 7.12536 | 235 ft | 22 kts | 317° |
| 2026-04-22 09:04 | 50.87127 | 7.12378 | 237 ft | 21 kts | 317° |
| 2026-04-22 09:05 | 50.87262 | 7.12287 | 229 ft | 24 kts | 15° |
| 2026-04-22 09:05 | 50.87414 | 7.12369 | 229 ft | 23 kts | 17° |
| 2026-04-22 09:05 | 50.87561 | 7.12445 | 231 ft | 22 kts | 19° |
| 2026-04-22 09:05 | 50.87703 | 7.12517 | 229 ft | 21 kts | 18° |
| 2026-04-22 09:06 | 50.87840 | 7.12587 | 229 ft | 20 kts | 18° |
| 2026-04-22 09:06 | 50.87974 | 7.12600 | 229 ft | 20 kts | 340° |
| 2026-04-22 09:06 | 50.88049 | 7.12437 | 229 ft | 17 kts | 299° |
| 2026-04-22 09:06 | 50.88114 | 7.12291 | 229 ft | 15 kts | 307° |
| 2026-04-22 09:07 | 50.88171 | 7.12162 | 231 ft | 14 kts | 305° |
| 2026-04-22 09:07 | 50.88226 | 7.12043 | 230 ft | 13 kts | 306° |
| 2026-04-22 09:07 | 50.88267 | 7.11923 | 229 ft | 12 kts | 262° |
| 2026-04-22 09:07 | 50.88224 | 7.11859 | 229 ft | 3 kts | 216° |
| 2026-04-22 09:08 | 50.88223 | 7.11858 | 229 ft | 0 kts | 216° |